Time;durP1;ratioP1;P1;durP2;ratioP2;P2;SDS_P1;SDS_P2;PMS_P1;PMS_P2;Temp;Humidity;BMP_temperature;BMP_pressure;BME280_temperature;BME280_humidity;BME280_pressure;Samples;Min_cycle;Max_cycle;Signal;HPM_P1;HPM_P2
2023/08/15 00:02:09;;;;;;;4.18;3.20;;;;;;;;;;10371638;28;20038;-59
2023/08/15 00:07:09;;;;;;;3.60;2.65;;;;;;;;;;10372015;28;20034;-60
2023/08/15 00:12:10;;;;;;;3.28;2.97;;;;;;;;;;10372348;28;20193;-59
2023/08/15 00:17:11;;;;;;;6.07;2.85;;;;;;;;;;10371098;28;20496;-59
2023/08/15 00:22:12;;;;;;;2.83;2.60;;;;;;;;;;10371259;28;20037;-59
2023/08/15 00:27:13;;;;;;;2.92;2.42;;;;;;;;;;10369825;28;20029;-59
2023/08/15 00:32:13;;;;;;;4.10;2.88;;;;;;;;;;10370466;28;20026;-59
2023/08/15 00:37:14;;;;;;;4.63;2.85;;;;;;;;;;10370157;28;20104;-59
2023/08/15 00:42:14;;;;;;;3.15;2.85;;;;;;;;;;10369996;28;20060;-59
2023/08/15 00:47:15;;;;;;;3.30;2.80;;;;;;;;;;10369861;28;20030;-59
2023/08/15 00:52:17;;;;;;;3.97;3.15;;;;;;;;;;10370316;28;20076;-59
2023/08/15 00:57:19;;;;;;;3.85;3.00;;;;;;;;;;10369364;28;20022;-59
2023/08/15 01:02:19;;;;;;;6.03;2.88;;;;;;;;;;10368174;28;20113;-58
2023/08/15 01:07:20;;;;;;;3.53;3.22;;;;;;;;;;10368062;28;20026;-58
2023/08/15 01:12:52;;;;;;;6.40;2.80;;;;;;;;;;10367943;28;20029;-59
2023/08/15 01:17:58;;;;;;;3.22;2.83;;;;;;;;;;10368808;28;20026;-59
2023/08/15 01:23:07;;;;;;;3.60;2.88;;;;;;;;;;10368850;28;20076;-59
2023/08/15 01:28:15;;;;;;;3.25;2.95;;;;;;;;;;10368472;28;20412;-59
2023/08/15 01:33:29;;;;;;;2.90;2.70;;;;;;;;;;10368363;28;20036;-59
2023/08/15 01:38:45;;;;;;;3.10;2.78;;;;;;;;;;10366974;28;20418;-65
2023/08/15 01:43:47;;;;;;;4.10;2.95;;;;;;;;;;10367365;28;20034;-59
2023/08/15 01:48:48;;;;;;;3.25;2.95;;;;;;;;;;10366892;28;20084;-64
2023/08/15 01:53:48;;;;;;;5.22;3.22;;;;;;;;;;10367823;28;20092;-59
2023/08/15 01:58:49;;;;;;;4.38;3.35;;;;;;;;;;10368369;28;20030;-59
2023/08/15 02:03:50;;;;;;;3.92;2.95;;;;;;;;;;10367450;28;20034;-59
2023/08/15 02:08:50;;;;;;;4.63;2.90;;;;;;;;;;10380141;28;20040;-59
2023/08/15 02:13:51;;;;;;;3.85;3.10;;;;;;;;;;10381131;28;20269;-59
2023/08/15 02:18:51;;;;;;;5.18;3.45;;;;;;;;;;10381381;28;20065;-62
2023/08/15 02:23:52;;;;;;;3.45;3.15;;;;;;;;;;10381225;28;20080;-59
2023/08/15 02:28:53;;;;;;;4.95;3.28;;;;;;;;;;10381109;28;20488;-59
2023/08/15 02:33:54;;;;;;;3.88;3.05;;;;;;;;;;10380904;28;20026;-59
2023/08/15 02:38:55;;;;;;;3.13;2.83;;;;;;;;;;10380380;28;20351;-59
2023/08/15 02:43:56;;;;;;;5.43;3.10;;;;;;;;;;10380413;28;20050;-59
2023/08/15 02:48:56;;;;;;;5.25;3.10;;;;;;;;;;10380803;28;20034;-59
2023/08/15 02:53:57;;;;;;;3.97;3.35;;;;;;;;;;10380759;28;20436;-59
2023/08/15 02:58:57;;;;;;;4.28;3.33;;;;;;;;;;10380034;28;20045;-59
2023/08/15 03:03:58;;;;;;;3.33;2.80;;;;;;;;;;10379997;28;20109;-59
2023/08/15 03:08:59;;;;;;;3.33;3.03;;;;;;;;;;10380043;28;20038;-59
2023/08/15 03:13:59;;;;;;;3.28;2.97;;;;;;;;;;10379937;28;20026;-59
2023/08/15 03:19:00;;;;;;;3.33;3.03;;;;;;;;;;10375366;28;20072;-59
2023/08/15 03:24:00;;;;;;;3.63;2.97;;;;;;;;;;10373226;28;20232;-59
2023/08/15 03:29:01;;;;;;;3.20;2.90;;;;;;;;;;10373522;28;20428;-59
2023/08/15 03:34:02;;;;;;;5.07;2.95;;;;;;;;;;10372686;28;20040;-60
2023/08/15 03:39:02;;;;;;;2.90;2.63;;;;;;;;;;10372438;28;20460;-59
2023/08/15 03:44:03;;;;;;;4.82;3.42;;;;;;;;;;10373029;28;20040;-59
2023/08/15 03:49:04;;;;;;;3.15;2.90;;;;;;;;;;10387453;28;20481;-59
2023/08/15 03:54:05;;;;;;;5.80;3.58;;;;;;;;;;10372552;28;20026;-58
2023/08/15 03:59:05;;;;;;;3.35;3.05;;;;;;;;;;10371845;28;20058;-59
2023/08/15 04:04:06;;;;;;;3.13;2.83;;;;;;;;;;10372107;28;20137;-59
2023/08/15 04:09:07;;;;;;;3.53;3.20;;;;;;;;;;10371683;28;20026;-59
2023/08/15 04:14:07;;;;;;;3.88;2.97;;;;;;;;;;10371280;28;20026;-59
2023/08/15 04:19:09;;;;;;;4.78;3.20;;;;;;;;;;10371029;28;20057;-59
2023/08/15 04:24:09;;;;;;;3.58;3.28;;;;;;;;;;10370832;28;20462;-59
2023/08/15 04:29:10;;;;;;;3.65;3.10;;;;;;;;;;10370721;28;20030;-59
2023/08/15 04:34:10;;;;;;;4.57;2.97;;;;;;;;;;10370389;28;20025;-59
2023/08/15 04:39:11;;;;;;;5.10;3.20;;;;;;;;;;10370182;28;20045;-59
2023/08/15 04:44:11;;;;;;;3.50;2.72;;;;;;;;;;10371138;28;20030;-59
2023/08/15 04:49:12;;;;;;;4.57;3.05;;;;;;;;;;10369181;28;20277;-59
2023/08/15 04:54:12;;;;;;;3.80;3.03;;;;;;;;;;10369809;28;20033;-59
2023/08/15 04:59:14;;;;;;;3.38;3.08;;;;;;;;;;10370604;28;20091;-59
2023/08/15 05:04:15;;;;;;;5.03;3.22;;;;;;;;;;10369350;28;20104;-59
2023/08/15 05:09:15;;;;;;;4.25;3.03;;;;;;;;;;10369338;28;20068;-59
2023/08/15 05:14:16;;;;;;;4.65;2.88;;;;;;;;;;10369004;28;20034;-58
2023/08/15 05:19:17;;;;;;;3.10;2.90;;;;;;;;;;10369385;28;20092;-59
2023/08/15 05:24:19;;;;;;;3.70;3.33;;;;;;;;;;10369319;28;20036;-59
2023/08/15 05:29:19;;;;;;;3.13;2.70;;;;;;;;;;10368599;28;20370;-59
2023/08/15 05:34:20;;;;;;;3.53;2.80;;;;;;;;;;10386446;23;20021;-66
2023/08/15 05:39:20;;;;;;;3.67;3.17;;;;;;;;;;10366496;28;20030;-66
2023/08/15 05:44:21;;;;;;;3.47;2.50;;;;;;;;;;10367888;28;20022;-68
2023/08/15 05:49:22;;;;;;;10.68;3.28;;;;;;;;;;10368243;28;20029;-67
2023/08/15 05:54:22;;;;;;;3.35;2.83;;;;;;;;;;10368467;28;20026;-68
2023/08/15 05:59:23;;;;;;;3.33;2.95;;;;;;;;;;10367932;28;20022;-65
2023/08/15 06:04:24;;;;;;;3.90;3.20;;;;;;;;;;10368289;28;20421;-67
2023/08/15 06:09:24;;;;;;;3.15;2.85;;;;;;;;;;10367729;28;20034;-56
2023/08/15 06:14:25;;;;;;;3.92;2.95;;;;;;;;;;10367607;28;20034;-66
2023/08/15 06:19:26;;;;;;;4.18;3.05;;;;;;;;;;10367452;28;20026;-68
2023/08/15 06:24:26;;;;;;;4.03;2.80;;;;;;;;;;10367373;28;20092;-67
2023/08/15 06:29:27;;;;;;;3.08;2.78;;;;;;;;;;10367518;28;20034;-65
2023/08/15 06:34:27;;;;;;;5.45;2.92;;;;;;;;;;10366977;28;20025;-63
2023/08/15 06:39:28;;;;;;;3.58;2.78;;;;;;;;;;10367176;28;20026;-67
2023/08/15 06:44:28;;;;;;;3.70;3.00;;;;;;;;;;10366940;28;20026;-68
2023/08/15 06:49:29;;;;;;;4.97;3.35;;;;;;;;;;10367078;28;20022;-64
2023/08/15 06:54:30;;;;;;;9.30;3.40;;;;;;;;;;10373044;28;20029;-68
2023/08/15 06:59:35;;;;;;;3.75;3.00;;;;;;;;;;10375009;28;20037;-66
2023/08/15 07:04:40;;;;;;;4.05;3.65;;;;;;;;;;10374298;28;20061;-65
2023/08/15 07:09:40;;;;;;;4.90;3.67;;;;;;;;;;10374083;28;20516;-69
2023/08/15 07:14:41;;;;;;;4.10;3.70;;;;;;;;;;10373970;28;20062;-68
2023/08/15 07:19:41;;;;;;;6.32;3.85;;;;;;;;;;10371047;28;20030;-62
2023/08/15 07:24:42;;;;;;;5.57;4.57;;;;;;;;;;10371990;28;20041;-53
2023/08/15 07:29:44;;;;;;;7.00;4.50;;;;;;;;;;10373114;28;20026;-52
2023/08/15 07:34:45;;;;;;;5.78;4.25;;;;;;;;;;10371394;28;20527;-54
2023/08/15 07:39:45;;;;;;;5.25;4.75;;;;;;;;;;10372282;28;20113;-53
2023/08/15 07:44:47;;;;;;;5.82;4.25;;;;;;;;;;10372749;28;20037;-59
2023/08/15 07:49:47;;;;;;;10.13;4.65;;;;;;;;;;10372069;28;20041;-52
2023/08/15 07:54:48;;;;;;;4.80;4.40;;;;;;;;;;10372005;28;20080;-51
2023/08/15 07:59:48;;;;;;;5.05;4.60;;;;;;;;;;10371870;28;20029;-54
2023/08/15 08:04:49;;;;;;;4.70;4.30;;;;;;;;;;10370720;28;20018;-52
2023/08/15 08:09:49;;;;;;;4.47;4.07;;;;;;;;;;10371402;28;20030;-52
2023/08/15 08:14:50;;;;;;;6.13;4.68;;;;;;;;;;10371580;28;20029;-55
2023/08/15 08:19:51;;;;;;;8.02;4.65;;;;;;;;;;10371097;28;20386;-52
2023/08/15 08:24:53;;;;;;;8.73;4.85;;;;;;;;;;10370962;28;20378;-55
2023/08/15 08:29:53;;;;;;;5.50;4.97;;;;;;;;;;10370847;28;20037;-53
2023/08/15 08:34:54;;;;;;;8.13;4.47;;;;;;;;;;10370534;28;20684;-52
2023/08/15 08:39:54;;;;;;;4.55;4.15;;;;;;;;;;10371207;28;20484;-53
2023/08/15 08:44:56;;;;;;;8.68;4.88;;;;;;;;;;10370256;28;20022;-53
2023/08/15 08:49:59;;;;;;;5.25;4.75;;;;;;;;;;10369723;28;20180;-51
2023/08/15 08:55:00;;;;;;;10.18;5.00;;;;;;;;;;10368487;28;20061;-53
2023/08/15 09:00:06;;;;;;;9.18;4.22;;;;;;;;;;10369334;28;20034;-55
2023/08/15 09:05:09;;;;;;;7.53;5.10;;;;;;;;;;10368428;28;20496;-53
2023/08/15 09:10:09;;;;;;;15.70;5.80;;;;;;;;;;10369346;28;20478;-52
2023/08/15 09:15:11;;;;;;;7.28;5.82;;;;;;;;;;10369031;28;20022;-53
2023/08/15 09:20:18;;;;;;;9.55;5.90;;;;;;;;;;10383985;28;20117;-53
2023/08/15 09:25:18;;;;;;;7.47;6.13;;;;;;;;;;10368544;28;20022;-58
2023/08/15 09:30:19;;;;;;;8.35;5.70;;;;;;;;;;10368368;28;20041;-53
2023/08/15 09:35:19;;;;;;;7.95;5.40;;;;;;;;;;10368037;28;20034;-53
2023/08/15 09:40:24;;;;;;;6.22;5.25;;;;;;;;;;10368463;28;20029;-53
2023/08/15 09:45:25;;;;;;;7.28;5.10;;;;;;;;;;10368216;28;20042;-53
2023/08/15 09:50:27;;;;;;;8.23;4.50;;;;;;;;;;10366973;28;20477;-53
2023/08/15 09:55:28;;;;;;;8.50;4.88;;;;;;;;;;10368062;28;20076;-53
2023/08/15 10:00:30;;;;;;;7.57;4.68;;;;;;;;;;10366626;28;20034;-52
2023/08/15 10:05:33;;;;;;;6.35;4.53;;;;;;;;;;10367419;28;20367;-53
2023/08/15 10:10:36;;;;;;;10.88;5.05;;;;;;;;;;10367447;28;20058;-53
2023/08/15 10:15:37;;;;;;;5.95;5.13;;;;;;;;;;10365701;28;20034;-52
2023/08/15 10:20:38;;;;;;;6.07;5.10;;;;;;;;;;10366122;28;20027;-52
2023/08/15 10:25:40;;;;;;;5.20;4.57;;;;;;;;;;10367563;28;20115;-53
2023/08/15 10:30:47;;;;;;;5.13;4.30;;;;;;;;;;10375429;28;20068;-53
2023/08/15 10:35:54;;;;;;;5.13;4.63;;;;;;;;;;10374957;28;20042;-51
2023/08/15 10:41:27;;;;;;;7.32;5.47;;;;;;;;;;10375436;28;20037;-53
2023/08/15 10:46:30;;;;;;;6.93;5.00;;;;;;;;;;10352289;28;20124;-52
2023/08/15 10:51:36;;;;;;;5.38;4.80;;;;;;;;;;10374975;28;20037;-53
2023/08/15 10:56:40;;;;;;;5.82;5.25;;;;;;;;;;10374981;28;20026;-52
2023/08/15 11:01:45;;;;;;;10.02;4.88;;;;;;;;;;10373784;28;20029;-51
2023/08/15 11:06:48;;;;;;;12.10;4.93;;;;;;;;;;10374572;28;20638;-52
2023/08/15 11:11:49;;;;;;;6.82;4.60;;;;;;;;;;10373840;28;20499;-61
2023/08/15 11:16:51;;;;;;;6.70;5.10;;;;;;;;;;10373572;28;20025;-52
2023/08/15 11:21:51;;;;;;;9.45;5.15;;;;;;;;;;10373361;28;20034;-53
2023/08/15 11:26:53;;;;;;;6.35;5.05;;;;;;;;;;10373266;28;20030;-53
2023/08/15 11:31:58;;;;;;;6.05;4.70;;;;;;;;;;10373497;28;20108;-52
2023/08/15 11:37:00;;;;;;;7.68;4.80;;;;;;;;;;10371273;28;20045;-51
2023/08/15 11:42:01;;;;;;;7.13;5.35;;;;;;;;;;10371840;28;20077;-53
2023/08/15 11:47:02;;;;;;;5.95;4.95;;;;;;;;;;10372130;28;20022;-52
2023/08/15 11:52:04;;;;;;;8.32;4.78;;;;;;;;;;10373021;28;20422;-52
2023/08/15 11:57:04;;;;;;;5.10;4.47;;;;;;;;;;10372079;28;20026;-53
2023/08/15 12:02:05;;;;;;;4.68;4.28;;;;;;;;;;10371915;28;20112;-54
2023/08/15 12:07:09;;;;;;;5.25;4.68;;;;;;;;;;10371578;28;20022;-58
2023/08/15 12:12:19;;;;;;;6.55;5.22;;;;;;;;;;10372026;28;20026;-53
2023/08/15 12:17:20;;;;;;;6.40;5.50;;;;;;;;;;10371289;28;20246;-52
2023/08/15 12:22:20;;;;;;;5.65;4.85;;;;;;;;;;10371870;28;20281;-52
2023/08/15 12:27:21;;;;;;;6.55;5.30;;;;;;;;;;10370170;28;20029;-52
2023/08/15 12:32:22;;;;;;;5.47;4.93;;;;;;;;;;10370830;28;20030;-58
2023/08/15 12:37:23;;;;;;;6.07;5.30;;;;;;;;;;10370075;28;20125;-51
2023/08/15 12:42:24;;;;;;;6.05;5.45;;;;;;;;;;10369868;28;20470;-53
2023/08/15 12:47:25;;;;;;;10.27;5.50;;;;;;;;;;10370579;28;20080;-52
2023/08/15 12:52:25;;;;;;;9.60;5.43;;;;;;;;;;10384861;28;20029;-52
2023/08/15 12:57:26;;;;;;;13.38;9.25;;;;;;;;;;10370455;28;20112;-52
2023/08/15 13:02:28;;;;;;;20.63;10.38;;;;;;;;;;10369731;28;20469;-52
2023/08/15 13:07:28;;;;;;;18.30;11.98;;;;;;;;;;10369324;28;20081;-50
2023/08/15 13:12:29;;;;;;;34.83;15.88;;;;;;;;;;10369427;28;20358;-53
2023/08/15 13:17:29;;;;;;;39.60;17.20;;;;;;;;;;10369631;28;20042;-52
2023/08/15 13:22:30;;;;;;;29.58;15.82;;;;;;;;;;10368767;28;20037;-53
2023/08/15 13:27:31;;;;;;;34.83;15.57;;;;;;;;;;10369368;28;20030;-51
2023/08/15 13:32:31;;;;;;;31.10;15.65;;;;;;;;;;10368681;28;20026;-50
2023/08/15 13:37:32;;;;;;;30.98;14.77;;;;;;;;;;10368416;28;20061;-52
2023/08/15 13:42:32;;;;;;;25.08;13.27;;;;;;;;;;10368274;28;20037;-52
2023/08/15 13:47:33;;;;;;;27.88;12.15;;;;;;;;;;10368106;28;20652;-52
2023/08/15 13:52:36;;;;;;;25.20;12.02;;;;;;;;;;10368002;28;20049;-53
2023/08/15 13:57:36;;;;;;;19.30;10.73;;;;;;;;;;10367904;28;20049;-52
2023/08/15 14:02:37;;;;;;;21.02;10.70;;;;;;;;;;10366945;28;20056;-51
2023/08/15 14:07:37;;;;;;;20.00;11.20;;;;;;;;;;10368134;28;20041;-51
2023/08/15 14:12:38;;;;;;;17.73;10.10;;;;;;;;;;10368046;28;20026;-51
2023/08/15 14:17:39;;;;;;;19.67;9.52;;;;;;;;;;10367936;28;20462;-51
2023/08/15 14:22:39;;;;;;;14.48;9.32;;;;;;;;;;10367872;28;20034;-52
2023/08/15 14:27:40;;;;;;;16.25;9.23;;;;;;;;;;10367250;28;20022;-51
2023/08/15 14:32:40;;;;;;;16.20;9.48;;;;;;;;;;10367177;28;20033;-52
2023/08/15 14:37:41;;;;;;;14.77;8.82;;;;;;;;;;10366863;28;20061;-52
2023/08/15 14:42:42;;;;;;;23.20;8.90;;;;;;;;;;10367016;28;20568;-50
2023/08/15 14:47:42;;;;;;;16.05;8.80;;;;;;;;;;10367225;28;20018;-49
2023/08/15 14:52:43;;;;;;;15.57;8.52;;;;;;;;;;10366775;28;20046;-52
2023/08/15 14:57:44;;;;;;;16.00;9.23;;;;;;;;;;10366309;28;20107;-50
2023/08/15 15:02:44;;;;;;;13.90;7.95;;;;;;;;;;10366541;28;20060;-50
2023/08/15 15:07:45;;;;;;;12.27;8.30;;;;;;;;;;10366642;28;20029;-52
2023/08/15 15:12:47;;;;;;;12.80;7.85;;;;;;;;;;10368225;28;20057;-52
2023/08/15 15:17:47;;;;;;;14.43;8.05;;;;;;;;;;10373804;28;20451;-52
2023/08/15 15:22:49;;;;;;;10.93;7.82;;;;;;;;;;10373464;28;20022;-51
2023/08/15 15:27:49;;;;;;;10.95;7.70;;;;;;;;;;10374476;28;20030;-52
2023/08/15 15:32:50;;;;;;;11.15;7.15;;;;;;;;;;10374134;28;20026;-53
2023/08/15 15:37:50;;;;;;;10.77;7.47;;;;;;;;;;10372771;28;20069;-51
2023/08/15 15:42:51;;;;;;;9.68;6.68;;;;;;;;;;10372815;28;20088;-51
2023/08/15 15:47:52;;;;;;;9.68;6.72;;;;;;;;;;10372940;28;20030;-52
2023/08/15 15:52:52;;;;;;;11.95;6.57;;;;;;;;;;10372056;28;20117;-52
2023/08/15 15:57:53;;;;;;;9.18;6.53;;;;;;;;;;10371801;28;20037;-49
2023/08/15 16:02:53;;;;;;;8.60;6.30;;;;;;;;;;10371740;28;20026;-51
2023/08/15 16:07:54;;;;;;;9.57;6.68;;;;;;;;;;10371913;28;20034;-49
2023/08/15 16:12:55;;;;;;;7.40;6.03;;;;;;;;;;10371726;28;20080;-52
2023/08/15 16:17:55;;;;;;;7.10;6.03;;;;;;;;;;10371428;28;20052;-52
2023/08/15 16:22:56;;;;;;;8.20;6.03;;;;;;;;;;10371167;28;20151;-51
2023/08/15 16:27:57;;;;;;;8.02;6.20;;;;;;;;;;10371011;28;20177;-52
2023/08/15 16:32:57;;;;;;;7.60;6.22;;;;;;;;;;10371472;28;20022;-51
2023/08/15 16:37:58;;;;;;;8.18;6.20;;;;;;;;;;10369470;28;20046;-49
2023/08/15 16:43:28;;;;;;;6.20;5.60;;;;;;;;;;10370491;28;20034;-52
2023/08/15 16:48:28;;;;;;;8.75;5.88;;;;;;;;;;10361797;28;20038;-51
2023/08/15 16:53:32;;;;;;;7.78;5.75;;;;;;;;;;10369460;28;20401;-51
2023/08/15 16:58:33;;;;;;;6.18;5.57;;;;;;;;;;10369857;28;20040;-49
2023/08/15 17:03:33;;;;;;;6.57;5.60;;;;;;;;;;10369696;28;20033;-52
2023/08/15 17:08:34;;;;;;;6.20;5.55;;;;;;;;;;10369879;28;20025;-52
2023/08/15 17:13:35;;;;;;;6.88;5.28;;;;;;;;;;10369538;28;20325;-51
2023/08/15 17:18:35;;;;;;;6.13;5.53;;;;;;;;;;10369733;28;20033;-52
2023/08/15 17:23:36;;;;;;;6.32;5.55;;;;;;;;;;10368902;28;20041;-51
2023/08/15 17:28:37;;;;;;;6.70;5.57;;;;;;;;;;10368974;28;20076;-52
2023/08/15 17:33:37;;;;;;;5.82;5.20;;;;;;;;;;10369307;28;20462;-52
2023/08/15 17:38:38;;;;;;;7.82;5.47;;;;;;;;;;10367704;28;20398;-57
2023/08/15 17:43:38;;;;;;;12.15;6.32;;;;;;;;;;10368954;28;20053;-52
2023/08/15 17:48:40;;;;;;;8.30;6.40;;;;;;;;;;10368339;28;20022;-52
2023/08/15 17:53:40;;;;;;;9.25;5.97;;;;;;;;;;10368007;28;20145;-50
2023/08/15 17:58:49;;;;;;;6.75;5.38;;;;;;;;;;10368197;28;20029;-51
2023/08/15 18:03:49;;;;;;;16.77;5.78;;;;;;;;;;10367853;28;20084;-52
2023/08/15 18:08:50;;;;;;;7.78;5.25;;;;;;;;;;10367981;28;20076;-51
2023/08/15 18:13:51;;;;;;;6.97;6.10;;;;;;;;;;10367718;28;20034;-50
2023/08/15 18:18:51;;;;;;;7.70;5.93;;;;;;;;;;10365949;28;20030;-52
2023/08/15 18:23:52;;;;;;;7.82;6.15;;;;;;;;;;10366720;28;20414;-53
2023/08/15 18:28:53;;;;;;;6.75;5.75;;;;;;;;;;10367058;28;20041;-60
2023/08/15 18:33:53;;;;;;;7.30;5.65;;;;;;;;;;10365632;28;20444;-50
2023/08/15 18:38:54;;;;;;;7.80;5.85;;;;;;;;;;10366114;28;20133;-61
2023/08/15 18:43:55;;;;;;;9.48;6.00;;;;;;;;;;10365001;28;20548;-50
2023/08/15 18:48:55;;;;;;;9.15;6.07;;;;;;;;;;10366772;28;20030;-54
2023/08/15 18:53:56;;;;;;;6.45;5.68;;;;;;;;;;10368310;28;20030;-54
2023/08/15 18:58:56;;;;;;;7.20;5.70;;;;;;;;;;10373179;28;20033;-55
2023/08/15 19:03:57;;;;;;;6.68;5.18;;;;;;;;;;10373327;28;20030;-55
2023/08/15 19:08:58;;;;;;;7.57;5.50;;;;;;;;;;10371824;28;20044;-55
2023/08/15 19:13:58;;;;;;;6.72;5.72;;;;;;;;;;10373033;28;20037;-54
2023/08/15 19:19:02;;;;;;;7.70;5.38;;;;;;;;;;10373011;28;20085;-54
2023/08/15 19:24:04;;;;;;;6.53;5.32;;;;;;;;;;10373199;28;20026;-53
2023/08/15 19:29:05;;;;;;;6.03;5.07;;;;;;;;;;10373298;28;20045;-54
2023/08/15 19:34:08;;;;;;;7.90;5.10;;;;;;;;;;10372726;28;20033;-52
2023/08/15 19:39:09;;;;;;;6.47;5.30;;;;;;;;;;10372629;28;20517;-56
2023/08/15 19:44:09;;;;;;;8.60;5.55;;;;;;;;;;10373213;28;20176;-49
2023/08/15 19:49:10;;;;;;;5.68;4.90;;;;;;;;;;10372679;28;20086;-53
2023/08/15 19:54:11;;;;;;;11.05;5.13;;;;;;;;;;10372222;28;20061;-54
2023/08/15 19:59:11;;;;;;;6.03;5.43;;;;;;;;;;10370970;28;20022;-57
2023/08/15 20:04:12;;;;;;;4.97;4.45;;;;;;;;;;10371926;28;20498;-53
2023/08/15 20:09:13;;;;;;;6.93;4.70;;;;;;;;;;10371782;28;20428;-70
2023/08/15 20:14:13;;;;;;;6.97;5.15;;;;;;;;;;10371885;28;20382;-56
2023/08/15 20:19:14;;;;;;;4.80;4.30;;;;;;;;;;10370521;28;20417;-51
2023/08/15 20:24:15;;;;;;;6.50;4.80;;;;;;;;;;10369656;28;20036;-59
2023/08/15 20:29:15;;;;;;;6.88;4.32;;;;;;;;;;10371297;28;20477;-62
2023/08/15 20:34:16;;;;;;;5.03;4.53;;;;;;;;;;10370931;28;20489;-54
2023/08/15 20:39:16;;;;;;;9.23;5.13;;;;;;;;;;10369904;28;20038;-55
2023/08/15 20:44:17;;;;;;;8.10;5.20;;;;;;;;;;10369664;28;20025;-56
2023/08/15 20:49:18;;;;;;;5.70;4.65;;;;;;;;;;10369343;28;20030;-55
2023/08/15 20:54:19;;;;;;;7.28;4.70;;;;;;;;;;10369314;28;20037;-62
2023/08/15 20:59:19;;;;;;;9.63;5.20;;;;;;;;;;10369529;28;20026;-56
2023/08/15 21:04:21;;;;;;;6.38;5.30;;;;;;;;;;10368841;28;20025;-60
2023/08/15 21:09:22;;;;;;;6.72;5.60;;;;;;;;;;10368334;28;20034;-55
2023/08/15 21:14:24;;;;;;;8.95;5.03;;;;;;;;;;10368504;28;20033;-60
2023/08/15 21:19:24;;;;;;;8.00;5.10;;;;;;;;;;10369134;28;20109;-54
2023/08/15 21:24:25;;;;;;;5.75;5.20;;;;;;;;;;10369095;28;20029;-55
2023/08/15 21:29:25;;;;;;;7.40;5.05;;;;;;;;;;10368997;28;20042;-59
2023/08/15 21:34:26;;;;;;;6.38;4.78;;;;;;;;;;10368430;28;20428;-65
2023/08/15 21:39:26;;;;;;;8.50;5.18;;;;;;;;;;10368739;28;20032;-54
2023/08/15 21:44:27;;;;;;;5.50;4.78;;;;;;;;;;10368922;28;20087;-54
2023/08/15 21:49:27;;;;;;;5.60;5.00;;;;;;;;;;10367516;28;20029;-56
2023/08/15 21:54:28;;;;;;;10.20;5.03;;;;;;;;;;10368479;28;20045;-54
2023/08/15 21:59:29;;;;;;;5.60;5.00;;;;;;;;;;10368059;28;20480;-72
2023/08/15 22:04:29;;;;;;;8.57;5.45;;;;;;;;;;10367840;28;20030;-58
2023/08/15 22:09:30;;;;;;;6.47;5.03;;;;;;;;;;10368531;28;20041;-53
2023/08/15 22:14:30;;;;;;;8.07;5.30;;;;;;;;;;10368380;28;20174;-61
2023/08/15 22:19:31;;;;;;;7.13;4.82;;;;;;;;;;10382854;28;20030;-53
2023/08/15 22:24:31;;;;;;;6.78;5.63;;;;;;;;;;10372880;28;20037;-53
2023/08/15 22:29:32;;;;;;;6.05;5.10;;;;;;;;;;10376048;28;20026;-55
2023/08/15 22:34:33;;;;;;;6.93;4.43;;;;;;;;;;10375825;28;20058;-73
2023/08/15 22:39:33;;;;;;;6.90;4.75;;;;;;;;;;10375475;28;20029;-57
2023/08/15 22:44:37;;;;;;;6.22;4.90;;;;;;;;;;10375071;28;20053;-53
2023/08/15 22:49:37;;;;;;;9.13;5.43;;;;;;;;;;10375033;28;20470;-54
2023/08/15 22:54:38;;;;;;;8.60;5.55;;;;;;;;;;10374685;28;20034;-56
2023/08/15 22:59:39;;;;;;;9.32;5.28;;;;;;;;;;10374718;28;20077;-53
2023/08/15 23:04:39;;;;;;;5.95;4.82;;;;;;;;;;10389591;28;20026;-54
2023/08/15 23:09:40;;;;;;;7.72;5.30;;;;;;;;;;10374219;28;20037;-51
2023/08/15 23:14:40;;;;;;;5.03;4.53;;;;;;;;;;10373815;28;20026;-52
2023/08/15 23:19:41;;;;;;;5.30;4.80;;;;;;;;;;10373858;28;20030;-54
2023/08/15 23:24:41;;;;;;;7.03;4.75;;;;;;;;;;10373307;28;20030;-50
2023/08/15 23:29:44;;;;;;;8.93;4.60;;;;;;;;;;10373317;28;20029;-52
2023/08/15 23:34:44;;;;;;;4.63;4.20;;;;;;;;;;10372394;28;20049;-53
2023/08/15 23:39:45;;;;;;;8.07;4.70;;;;;;;;;;10372971;28;20033;-52
2023/08/15 23:44:46;;;;;;;7.55;4.50;;;;;;;;;;10372916;28;20453;-52
2023/08/15 23:49:46;;;;;;;5.88;4.40;;;;;;;;;;10372624;28;20375;-53
2023/08/15 23:54:47;;;;;;;6.18;4.57;;;;;;;;;;10372343;28;20057;-52
2023/08/15 23:59:48;;;;;;;6.72;4.45;;;;;;;;;;10372230;28;20409;-49
